»·PEaware :: SWA210 KBUR-KLAS

SWA210 :: KBUR-KLAS

FLIGHT INFORMATION

Flight Status: Arrived
Operator:
Southwest Airlines
More flights by this operator :: More flights under this callsign
Pilot: Anonymous 16446 (16446)
Aircraft: BOEING 737-200
(B732)
More flights by this aircraft type
Origin: KBUR Bob Hope-Burbank
United States
Destination: KLAS McCarran Intl
United States
More flights between these airports :: More routes between these airports
Route: +VNY3 DAG CLARR3
File this flight plan on PilotEdge
Remarks: Full departure please
Altitude:
(Current/Filed)
27,000ft
Speed:
(Current/Filed)
450kts
Departed: 19-Jan-18 09:04 PM
Arrived: 19-Jan-18 09:51 PM
Distance/Time
Traveled:
194nm/0:47
Distance/Time
To Go:
Arrived

Flight Plot

Page will automatically refresh every two minutes.

Flight plan parsing failed; only flown route is shown


Map Options




Map Legend


Flown Route
Filed Route
Departure Airport
Arrival Airport
Navaid (VOR, NDB)
Fix

Horizontal Profiles

Position Reports

Time Latitude Longitude Heading Altitude Ground
Speed
19-Jan-18 20:40 34.196739 -118.351076 179 785ft 0kts
19-Jan-18 20:41 34.196739 -118.351076 179 785ft 0kts
19-Jan-18 20:42 34.196739 -118.351076 179 785ft 0kts
19-Jan-18 20:43 34.196739 -118.351076 179 785ft 0kts
19-Jan-18 20:44 34.196739 -118.351076 179 785ft 0kts
19-Jan-18 20:45 34.196739 -118.351076 179 785ft 0kts
19-Jan-18 20:46 34.196739 -118.351076 179 785ft 0kts
19-Jan-18 20:47 34.196739 -118.351076 179 785ft 0kts
19-Jan-18 20:48 34.196739 -118.351076 179 785ft 0kts
19-Jan-18 20:49 34.196739 -118.351076 179 785ft 0kts
19-Jan-18 20:50 34.196739 -118.351076 179 785ft 0kts
19-Jan-18 20:51 34.196739 -118.351076 179 785ft 0kts
19-Jan-18 20:52 34.196739 -118.351076 179 785ft 0kts
19-Jan-18 20:53 34.196736 -118.351076 179 785ft 0kts
19-Jan-18 20:54 34.197161 -118.350747 255 785ft 2kts
19-Jan-18 20:55 34.197174 -118.350602 271 785ft 0kts
19-Jan-18 20:56 34.197174 -118.350602 271 785ft 0kts
19-Jan-18 20:57 34.197174 -118.350602 271 785ft 0kts
19-Jan-18 20:58 34.197174 -118.350602 271 785ft 0kts
19-Jan-18 20:59 34.197171 -118.353146 269 785ft 11kts
19-Jan-18 21:00 34.197172 -118.353246 270 785ft 0kts
19-Jan-18 21:01 34.199356 -118.355526 347 785ft 32kts
19-Jan-18 21:02 34.206579 -118.357597 345 785ft 24kts
19-Jan-18 21:03 34.211561 -118.359034 310 785ft 0kts
19-Jan-18 21:04 34.211561 -118.359034 310 785ft 0kts
19-Jan-18 21:05 34.211561 -118.359034 310 785ft 0kts
19-Jan-18 21:06 34.211420 -118.360108 184 785ft 11kts
19-Jan-18 21:07 34.211162 -118.360124 167 785ft 0kts
19-Jan-18 21:08 34.211162 -118.360124 167 785ft 0kts
19-Jan-18 21:09 34.211162 -118.360124 167 785ft 0kts
19-Jan-18 21:10 34.207208 -118.359098 167 785ft 87kts
19-Jan-18 21:11 34.169957 -118.368709 229 2472ft 182kts
19-Jan-18 21:12 34.147035 -118.421260 308 5012ft 220kts
19-Jan-18 21:13 34.209893 -118.418249 15 7143ft 262kts
19-Jan-18 21:14 34.281627 -118.400192 11 9290ft 282kts
19-Jan-18 21:15 34.338747 -118.338693 61 10806ft 321kts
19-Jan-18 21:16 34.411339 -118.273660 40 12811ft 337kts
19-Jan-18 21:17 34.492814 -118.194536 36 13294ft 396kts
19-Jan-18 21:18 34.580315 -118.111949 36 14916ft 408kts
19-Jan-18 21:19 34.634598 -117.995762 78 16264ft 416kts
19-Jan-18 21:20 34.655191 -117.856943 85 17430ft 423kts
19-Jan-18 21:21 34.671261 -117.715013 86 18483ft 432kts
19-Jan-18 21:22 34.682225 -117.569312 96 19453ft 434kts
19-Jan-18 21:23 34.714133 -117.424686 71 20301ft 455kts
19-Jan-18 21:24 34.759486 -117.283279 68 21053ft 463kts
19-Jan-18 21:25 34.815333 -117.141475 66 21712ft 470kts
19-Jan-18 21:26 34.872592 -116.997545 66 22425ft 473kts
19-Jan-18 21:27 34.930549 -116.853598 66 23111ft 475kts
19-Jan-18 21:28 34.968458 -116.704430 102 23586ft 454kts
19-Jan-18 21:29 34.961645 -116.548830 91 24046ft 469kts
19-Jan-18 21:30 35.033251 -116.413900 42 24087ft 496kts
19-Jan-18 21:31 35.126036 -116.313391 42 23895ft 455kts
19-Jan-18 21:32 35.218047 -116.238832 40 23042ft 423kts
19-Jan-18 21:33 35.301932 -116.143767 47 21584ft 406kts
19-Jan-18 21:34 35.378175 -116.048261 48 18864ft 384kts
19-Jan-18 21:35 35.449999 -115.956423 48 16536ft 366kts
19-Jan-18 21:36 35.518538 -115.868245 48 14324ft 350kts
19-Jan-18 21:37 35.584963 -115.782424 48 13490ft 343kts
19-Jan-18 21:38 35.650357 -115.697611 48 12957ft 340kts
19-Jan-18 21:39 35.713972 -115.615300 48 12900ft 322kts
19-Jan-18 21:40 35.779256 -115.546927 6 12922ft 302kts
19-Jan-18 21:41 35.861498 -115.547554 348 12886ft 298kts
19-Jan-18 21:42 35.951807 -115.561591 348 12146ft 335kts
19-Jan-18 21:43 36.044374 -115.561285 27 12190ft 341kts
19-Jan-18 21:44 36.079690 -115.464285 91 12057ft 319kts
19-Jan-18 21:45 36.049213 -115.369976 116 11611ft 301kts
19-Jan-18 21:46 36.029336 -115.272912 105 10804ft 301kts
19-Jan-18 21:47 36.018451 -115.172016 101 9512ft 294kts
19-Jan-18 21:48 36.010782 -115.074694 100 8873ft 261kts
19-Jan-18 21:49 36.003950 -114.981674 98 6944ft 289kts
19-Jan-18 21:50 35.999274 -114.884212 78 6064ft 287kts
19-Jan-18 21:51 36.061679 -114.848249 320 5044ft 266kts
19-Jan-18 21:52 36.070494 -114.928056 272 3320ft 232kts
19-Jan-18 21:53 36.073590 -115.001787 267 2377ft 168kts
19-Jan-18 21:54 36.073682 -115.052846 266 2988ft 145kts
19-Jan-18 21:55 36.073681 -115.103659 267 2469ft 139kts
19-Jan-18 21:56 36.073652 -115.146570 270 2123ft 60kts
19-Jan-18 21:57 36.075979 -115.151746 331 2123ft 22kts
19-Jan-18 21:58 36.081030 -115.152359 329 2123ft 18kts
19-Jan-18 21:59 36.082381 -115.152932 4 2123ft 0kts
19-Jan-18 22:00 36.082381 -115.152932 4 2123ft 0kts
19-Jan-18 22:01 36.082381 -115.152932 4 2123ft 0kts

Navigation Log

Ident Type
Flight plan parsing failed, navigation log unavailable